createdAt,value
2022-08-26T00:03:23.674Z,18.914185
2022-08-26T00:06:48.934Z,18.904114
2022-08-26T00:10:14.114Z,18.843689
2022-08-26T00:13:39.279Z,18.823547
2022-08-26T00:17:04.477Z,18.813477
2022-08-26T00:20:29.616Z,18.753052
2022-08-26T00:23:54.779Z,18.722839
2022-08-26T00:27:19.955Z,18.702698
2022-08-26T00:30:45.143Z,18.73291
2022-08-26T00:34:11.202Z,18.763123
2022-08-26T00:37:35.490Z,18.783264
2022-08-26T00:41:00.660Z,18.813477
2022-08-26T00:44:25.871Z,18.813477
2022-08-26T00:47:51.067Z,18.783264
2022-08-26T00:51:16.225Z,18.753052
2022-08-26T00:54:42.340Z,18.722839
2022-08-26T00:58:06.662Z,18.702698
2022-08-26T01:01:31.923Z,18.672485
2022-08-26T01:04:57.088Z,18.662415
2022-08-26T01:08:22.327Z,18.662415
2022-08-26T01:11:47.542Z,18.632202
2022-08-26T01:15:12.742Z,18.581848
2022-08-26T01:18:37.962Z,18.501282
2022-08-26T01:22:03.134Z,18.511353
2022-08-26T01:25:28.295Z,18.511353
2022-08-26T01:28:53.450Z,18.501282
2022-08-26T01:32:18.610Z,18.521423
2022-08-26T01:35:43.783Z,18.541565
2022-08-26T01:39:08.983Z,18.551636
2022-08-26T01:42:34.154Z,18.571777
2022-08-26T01:45:59.424Z,18.541565
2022-08-26T01:49:24.543Z,18.541565
2022-08-26T01:52:50.022Z,18.511353
2022-08-26T01:56:14.918Z,18.48114
2022-08-26T01:59:40.073Z,18.450928
2022-08-26T02:03:05.261Z,18.420715
2022-08-26T02:06:30.434Z,18.440857
2022-08-26T02:09:55.609Z,18.48114
2022-08-26T02:13:20.865Z,18.440857
2022-08-26T02:16:46.133Z,18.420715
2022-08-26T02:20:13.245Z,18.370361
2022-08-26T02:23:36.480Z,18.360291
2022-08-26T02:27:01.652Z,18.420715
2022-08-26T02:30:26.808Z,18.450928
2022-08-26T02:33:51.971Z,18.471069
2022-08-26T02:37:17.598Z,18.450928
2022-08-26T02:40:42.364Z,18.410645
2022-08-26T02:44:07.530Z,18.420715
2022-08-26T02:47:32.738Z,18.450928
2022-08-26T02:50:57.937Z,18.48114
2022-08-26T02:54:23.107Z,18.48114
2022-08-26T02:57:48.297Z,18.471069
2022-08-26T03:01:13.587Z,18.471069
2022-08-26T03:04:38.674Z,18.440857
2022-08-26T03:08:03.880Z,18.410645
2022-08-26T03:11:32.816Z,18.330078
2022-08-26T03:14:54.291Z,18.269653
2022-08-26T03:18:19.464Z,18.199158
2022-08-26T03:21:44.678Z,18.168945
2022-08-26T03:25:09.854Z,18.118591
2022-08-26T03:28:35.049Z,18.09845
2022-08-26T03:32:00.270Z,18.048096
2022-08-26T03:35:25.518Z,18.048096
2022-08-26T03:38:50.711Z,18.017883
2022-08-26T03:42:16.474Z,18.027954
2022-08-26T03:45:43.208Z,17.957458
2022-08-26T03:49:11.095Z,17.917175
2022-08-26T03:52:37.965Z,17.897034
2022-08-26T03:56:01.457Z,17.917175
2022-08-26T03:59:26.659Z,17.917175
2022-08-26T04:02:53.199Z,17.917175
2022-08-26T04:06:17.085Z,17.927246
2022-08-26T04:09:42.282Z,17.866821
2022-08-26T04:13:07.668Z,17.85675
2022-08-26T04:16:32.734Z,17.816467
2022-08-26T04:19:57.886Z,17.836609
2022-08-26T04:23:23.090Z,17.866821
2022-08-26T04:26:48.305Z,17.866821
2022-08-26T04:30:13.529Z,17.886963
2022-08-26T04:33:41.800Z,17.947388
2022-08-26T04:37:03.975Z,17.987671
2022-08-26T04:40:29.280Z,18.017883
2022-08-26T04:43:54.502Z,18.027954
2022-08-26T04:47:19.726Z,18.027954
2022-08-26T04:50:49.566Z,18.078308
2022-08-26T04:54:13.826Z,18.148804
2022-08-26T04:57:39.045Z,18.199158
2022-08-26T05:01:04.266Z,18.269653
2022-08-26T05:04:29.543Z,18.289795
2022-08-26T05:07:54.684Z,18.320007
2022-08-26T05:11:19.889Z,18.360291
2022-08-26T05:14:45.107Z,18.360291
2022-08-26T05:18:10.344Z,18.390503
2022-08-26T05:21:35.569Z,18.440857
2022-08-26T05:25:00.787Z,18.521423
2022-08-26T05:28:26.024Z,18.622131
2022-08-26T05:31:51.240Z,18.672485
2022-08-26T05:35:16.466Z,18.753052
2022-08-26T05:38:41.682Z,18.803406
2022-08-26T05:42:06.899Z,18.823547
2022-08-26T05:45:32.105Z,18.873901
2022-08-26T05:48:57.327Z,18.904114
2022-08-26T05:52:24.600Z,18.954468
2022-08-26T05:55:47.740Z,18.994751
2022-08-26T05:59:14.307Z,19.075317
2022-08-26T06:02:38.192Z,19.135742
2022-08-26T06:06:03.392Z,19.216309
2022-08-26T06:09:28.616Z,19.327087
2022-08-26T06:12:53.853Z,19.468079
2022-08-26T06:16:19.105Z,19.578857
2022-08-26T06:19:44.238Z,19.679565
2022-08-26T06:23:09.615Z,19.780273
2022-08-26T06:26:34.705Z,19.921265
2022-08-26T06:29:59.896Z,20.062256
2022-08-26T06:33:25.091Z,20.162964
2022-08-26T06:36:50.298Z,20.293884
2022-08-26T06:40:15.504Z,20.394592
2022-08-26T06:43:40.711Z,20.505371
2022-08-26T06:47:05.933Z,20.565796
2022-08-26T06:50:31.145Z,20.61615
2022-08-26T06:53:56.368Z,20.686646
2022-08-26T06:57:21.568Z,20.696716
2022-08-26T07:00:47.301Z,20.737
2022-08-26T07:04:12.018Z,20.726929
2022-08-26T07:07:37.263Z,20.757141
2022-08-26T07:11:02.494Z,20.837708
2022-08-26T07:14:27.724Z,20.908203
2022-08-26T07:17:52.939Z,21.029053
2022-08-26T07:21:18.394Z,21.159973
2022-08-26T07:24:43.426Z,21.341248
2022-08-26T07:28:08.621Z,21.50238
2022-08-26T07:31:39.132Z,21.653442
2022-08-26T07:34:59.094Z,21.713867
2022-08-26T07:38:24.358Z,21.804504
2022-08-26T07:41:49.590Z,21.844788
2022-08-26T07:45:14.802Z,21.915283
2022-08-26T07:48:40.052Z,21.975708
2022-08-26T07:52:05.268Z,22.046204
2022-08-26T07:55:30.503Z,22.086487
2022-08-26T07:58:55.727Z,22.136841
2022-08-26T08:02:20.946Z,22.177124
2022-08-26T08:05:46.330Z,22.237549
2022-08-26T08:09:11.384Z,22.308044
2022-08-26T08:12:36.649Z,22.388611
2022-08-26T08:16:01.827Z,22.398682
2022-08-26T08:19:28.440Z,22.449036
2022-08-26T08:22:52.194Z,22.469177
2022-08-26T08:26:17.381Z,22.539673
2022-08-26T08:29:42.638Z,22.620239
2022-08-26T08:33:07.879Z,22.720947
2022-08-26T08:36:36.101Z,22.771301
2022-08-26T08:39:58.445Z,22.821655
2022-08-26T08:43:23.610Z,22.831726
2022-08-26T08:46:48.846Z,22.922363
2022-08-26T08:50:14.116Z,23.00293
2022-08-26T08:53:39.360Z,23.123779
2022-08-26T08:57:04.583Z,23.153992
2022-08-26T09:00:30.180Z,23.224487
2022-08-26T09:03:55.125Z,23.274841
2022-08-26T09:07:20.350Z,23.345337
2022-08-26T09:10:45.580Z,23.466187
2022-08-26T09:14:10.996Z,23.566895
2022-08-26T09:17:36.325Z,23.576965
2022-08-26T09:21:01.557Z,23.607178
2022-08-26T09:24:28.452Z,23.607178
2022-08-26T09:27:52.067Z,23.627319
2022-08-26T09:31:17.346Z,23.697815
2022-08-26T09:34:42.525Z,23.909302
2022-08-26T09:38:10.407Z,24.161072
2022-08-26T09:41:32.978Z,24.3927
2022-08-26T09:44:58.218Z,24.493408
2022-08-26T09:48:23.460Z,24.624329
2022-08-26T09:51:50.104Z,24.684753
2022-08-26T09:55:13.937Z,24.694824
2022-08-26T09:58:39.185Z,24.714966
2022-08-26T10:02:04.457Z,24.725037
2022-08-26T10:05:29.655Z,24.725037
2022-08-26T10:08:54.903Z,24.775391
2022-08-26T10:12:25.989Z,24.775391
2022-08-26T10:15:52.316Z,24.845886
2022-08-26T10:19:17.674Z,24.976807
2022-08-26T10:22:42.921Z,24.996948
2022-08-26T10:26:08.150Z,24.956665
2022-08-26T10:29:33.381Z,24.946594
2022-08-26T10:32:58.606Z,24.866028
2022-08-26T10:36:23.831Z,24.725037
2022-08-26T10:39:49.211Z,24.584045
2022-08-26T10:43:14.276Z,24.463196
2022-08-26T10:46:39.498Z,24.372559
2022-08-26T10:50:04.726Z,24.322205
2022-08-26T10:53:32.611Z,24.221497
2022-08-26T10:56:55.262Z,24.130859
2022-08-26T12:58:29.292Z,24.120789
2022-08-26T13:01:55.067Z,24.130859
2022-08-26T13:05:20.172Z,24.120789
2022-08-26T13:08:46.000Z,24.100647
2022-08-26T13:12:11.256Z,24.100647
2022-08-26T13:15:36.536Z,24.080505
2022-08-26T13:19:01.803Z,24.100647
2022-08-26T13:22:27.071Z,24.100647
2022-08-26T13:25:52.305Z,24.130859
2022-08-26T13:29:17.577Z,24.151001
2022-08-26T13:32:42.769Z,24.181213
2022-08-26T13:36:08.009Z,24.221497
2022-08-26T13:39:33.289Z,24.251709
2022-08-26T13:42:58.520Z,24.312134
2022-08-26T13:46:23.859Z,24.281921
2022-08-26T13:49:49.052Z,24.302063
2022-08-26T13:53:14.265Z,24.302063
2022-08-26T13:56:41.998Z,24.302063
2022-08-26T14:00:10.927Z,24.372559
2022-08-26T14:03:34.671Z,24.402771
2022-08-26T14:06:59.891Z,24.453125
2022-08-26T14:10:25.193Z,24.473267
2022-08-26T14:13:50.424Z,24.553833
2022-08-26T14:17:15.680Z,24.604187
2022-08-26T14:20:40.921Z,24.684753
2022-08-26T14:24:06.197Z,24.76532
2022-08-26T14:27:31.482Z,24.835815
2022-08-26T15:06:33.938Z,24.432983
2022-08-26T15:09:59.165Z,24.312134
2022-08-26T15:13:24.400Z,24.322205
2022-08-26T15:16:49.648Z,24.312134
2022-08-26T15:20:14.877Z,24.211426
2022-08-26T15:23:40.115Z,24.120789
2022-08-26T15:27:05.330Z,24.030151
2022-08-26T15:30:30.570Z,23.969727
